Preview an experimental upcoming version of this site at Beta.AviationWeather.gov

Impacts TAF Board
For situational awareness. Not to be used for flight planning purposes.
IDs:

KCVG - Cincinnati Intl, KY, US

Issued at 1132 UTC 28 Sep 2023
Updated at 1208 UTC 28 Sep 2023
Potential Impact None Slight Moderate High
Time1152Z 28/13Z 28/14Z 28/15Z 28/16Z 28/17Z 28/18Z 28/19Z 28/20Z 28/21Z 28/22Z 28/23Z 29/00Z 29/01Z>>
Type OBS PRVL PRVL PRVL PRVL PRVL PRVL PRVL PRVL PRVL PRVL PRVL PRVL PRVL
VIS 8 >6 >6 >6 >6 >6 >6 >6 >6 >6 >6 >6 >6 >6
CIG 46 100 100 100 25 25 25 -- -- -- -- -- -- --
Cover BKN BKN BKN BKN BKN BKN BKN SCT SCT SCT SCT SCT SCT SCT
FltCat VFR VFR VFR VFR MVFR MVFR MVFR VFR VFR VFR VFR VFR VFR VFR
WX -- VCSH VCSH VCSH VCSH VCSH VCSH -- -- -- -- -- -- --
WDir 160 170 170 170 210 210 210 240 240 240 240 240 240 240
WSpd 5 6 6 6 8 8 8 6 6 6 6 6 6 6
WGst -- -- -- -- -- -- -- -- -- -- -- -- -- --
WSHgt -- -- -- -- -- -- -- -- -- -- -- -- -- --
WSDir -- -- -- -- -- -- -- -- -- -- -- -- -- --
WSSpd -- -- -- -- -- -- -- -- -- -- -- -- -- --

NOTE: LAMP data beyond the time of the TAF data is denoted as LAMP in Type and colored magenta.

Raw TAF
KCVG 281132Z 2812/2918 17006KT P6SM VCSH FEW080 BKN100 BKN250
  FM281600 21008KT P6SM VCSH BKN025
  FM281900 24006KT P6SM SCT035
  FM290300 VRB03KT 5SM BR SCT025
  FM290900 VRB03KT 1SM BR SCT015
  FM291200 VRB03KT 1/2SM FG SCT005
  FM291500 01003KT 5SM BR SCT009


Raw METAR
KCVG 281152Z 16005KT 8SM SCT027 BKN046 17/17 A3005 RMK AO2 SLP169 CB DSNT SW 70008 T01670167 10183 20167 53017
KCVG 281052Z 17006KT 10SM FEW080 BKN095 BKN250 17/17 A3002 RMK AO2 SLP159 T01670167
KCVG 280952Z 20005KT 10SM BKN100 BKN250 17/17 A3001 RMK AO2 SLP154 T01720172

METAR Board
Radar Display
Forecast Discussion

For situational awareness. Not to be used for flight planning purposes.